Time;durP1;ratioP1;P1;durP2;ratioP2;P2;SDS_P1;SDS_P2;PMS_P1;PMS_P2;Temp;Humidity;BMP_temperature;BMP_pressure;BME280_temperature;BME280_humidity;BME280_pressure;Samples;Min_cycle;Max_cycle;Signal;HPM_P1;HPM_P2
2024/01/09 00:01:04;;;;;;;13.17;3.90;;;;;;;;;;5094393;28;20043;-60
2024/01/09 00:03:30;;;;;;;13.53;3.70;;;;;;;;;;5092404;28;20269;-59
2024/01/09 00:05:55;;;;;;;12.35;3.45;;;;;;;;;;5094850;28;20322;-59
2024/01/09 00:08:21;;;;;;;13.98;3.63;;;;;;;;;;5092512;28;20035;-60
2024/01/09 00:10:46;;;;;;;13.95;3.83;;;;;;;;;;5094547;28;20041;-59
2024/01/09 00:13:11;;;;;;;13.87;3.80;;;;;;;;;;5095603;28;20016;-60
2024/01/09 00:15:36;;;;;;;10.95;3.15;;;;;;;;;;5095601;28;20261;-58
2024/01/09 00:18:01;;;;;;;12.88;3.63;;;;;;;;;;5097967;28;20508;-59
2024/01/09 00:20:26;;;;;;;10.90;3.22;;;;;;;;;;5100628;28;20034;-59
2024/01/09 00:22:52;;;;;;;13.45;3.53;;;;;;;;;;5098639;28;20016;-58
2024/01/09 00:25:18;;;;;;;13.40;3.83;;;;;;;;;;5095509;28;20484;-59
2024/01/09 00:27:43;;;;;;;13.77;3.58;;;;;;;;;;5099835;28;20084;-60
2024/01/09 00:30:09;;;;;;;12.70;3.40;;;;;;;;;;5095930;28;20047;-59
2024/01/09 00:32:34;;;;;;;13.50;3.60;;;;;;;;;;5096638;28;20012;-59
2024/01/09 00:35:00;;;;;;;13.63;3.38;;;;;;;;;;5096479;28;20387;-58
2024/01/09 00:37:26;;;;;;;11.95;3.60;;;;;;;;;;5097646;28;20090;-59
2024/01/09 00:39:51;;;;;;;15.05;3.90;;;;;;;;;;5092802;28;20107;-59
2024/01/09 00:42:17;;;;;;;10.48;3.25;;;;;;;;;;5096518;28;20261;-59
2024/01/09 00:44:42;;;;;;;12.48;3.28;;;;;;;;;;5095707;28;20040;-59
2024/01/09 00:47:07;;;;;;;13.40;3.42;;;;;;;;;;5099611;28;20027;-58
2024/01/09 00:49:32;;;;;;;13.23;3.20;;;;;;;;;;5098341;28;20030;-59
2024/01/09 00:51:58;;;;;;;13.80;3.70;;;;;;;;;;5100222;28;20405;-59
2024/01/09 00:54:23;;;;;;;13.80;3.53;;;;;;;;;;5099325;28;20031;-59
2024/01/09 00:56:48;;;;;;;9.43;3.08;;;;;;;;;;5097113;28;20012;-58
2024/01/09 00:59:13;;;;;;;11.32;3.47;;;;;;;;;;5099071;28;20531;-59
2024/01/09 01:01:38;;;;;;;12.93;3.38;;;;;;;;;;5098985;28;20073;-59
2024/01/09 01:04:04;;;;;;;12.20;3.40;;;;;;;;;;5099246;28;20124;-59
2024/01/09 01:06:29;;;;;;;12.98;4.13;;;;;;;;;;5098902;28;20035;-59
2024/01/09 01:08:54;;;;;;;13.77;3.42;;;;;;;;;;5098470;28;20012;-59
2024/01/09 01:11:19;;;;;;;15.30;3.90;;;;;;;;;;5098360;28;20043;-59
2024/01/09 01:13:44;;;;;;;15.77;3.73;;;;;;;;;;5098876;28;20272;-59
2024/01/09 01:16:10;;;;;;;11.32;3.35;;;;;;;;;;5095320;28;20311;-59
2024/01/09 01:18:35;;;;;;;14.60;3.38;;;;;;;;;;5099441;28;20016;-59
2024/01/09 01:21:00;;;;;;;11.93;3.50;;;;;;;;;;5100331;28;20011;-59
2024/01/09 01:23:25;;;;;;;13.50;3.90;;;;;;;;;;5097941;28;20265;-59
2024/01/09 01:25:50;;;;;;;12.32;3.22;;;;;;;;;;5097636;28;20026;-60
2024/01/09 01:28:15;;;;;;;15.30;3.83;;;;;;;;;;5098881;28;20256;-59
2024/01/09 01:30:41;;;;;;;12.30;3.70;;;;;;;;;;5095534;28;20491;-60
2024/01/09 01:33:06;;;;;;;11.93;3.58;;;;;;;;;;5095436;28;20018;-60
2024/01/09 01:35:31;;;;;;;15.25;3.58;;;;;;;;;;5096372;28;20024;-60
2024/01/09 01:37:56;;;;;;;15.55;3.97;;;;;;;;;;5096081;28;20255;-59
2024/01/09 01:40:21;;;;;;;12.45;3.40;;;;;;;;;;5096492;28;20020;-60
2024/01/09 01:42:47;;;;;;;10.75;3.45;;;;;;;;;;5097624;28;20119;-60
2024/01/09 01:45:18;;;;;;;11.55;3.40;;;;;;;;;;5096735;28;20024;-61
2024/01/09 01:47:45;;;;;;;10.38;3.03;;;;;;;;;;5096215;28;20644;-61
2024/01/09 01:50:11;;;;;;;14.05;3.22;;;;;;;;;;5095777;28;20142;-60
2024/01/09 01:52:36;;;;;;;13.35;3.50;;;;;;;;;;5098895;28;20016;-61
2024/01/09 01:55:01;;;;;;;13.82;3.67;;;;;;;;;;5101522;28;20824;-60
2024/01/09 01:57:27;;;;;;;13.80;3.70;;;;;;;;;;5099647;28;20008;-60
2024/01/09 01:59:52;;;;;;;13.20;3.67;;;;;;;;;;5096361;28;20433;-60
2024/01/09 02:02:17;;;;;;;12.93;3.55;;;;;;;;;;5095728;28;20022;-60
2024/01/09 02:04:43;;;;;;;12.60;3.72;;;;;;;;;;5096980;28;20035;-59
2024/01/09 02:07:09;;;;;;;13.15;3.30;;;;;;;;;;5098243;28;20359;-59
2024/01/09 02:09:35;;;;;;;13.98;3.97;;;;;;;;;;5096806;28;20039;-59
2024/01/09 02:12:00;;;;;;;13.82;3.53;;;;;;;;;;5097239;28;20059;-58
2024/01/09 02:14:25;;;;;;;13.50;3.65;;;;;;;;;;5096315;28;20052;-59
2024/01/09 02:16:50;;;;;;;12.15;3.40;;;;;;;;;;5098758;28;20107;-59
2024/01/09 02:19:15;;;;;;;12.75;3.38;;;;;;;;;;5096827;28;20043;-60
2024/01/09 02:21:41;;;;;;;14.03;3.80;;;;;;;;;;5093293;28;20365;-60
2024/01/09 02:24:06;;;;;;;12.68;3.35;;;;;;;;;;5098767;28;20313;-59
2024/01/09 02:26:34;;;;;;;13.40;3.65;;;;;;;;;;5096757;28;20055;-60
2024/01/09 02:29:04;;;;;;;9.00;3.25;;;;;;;;;;5096841;28;20008;-59
2024/01/09 02:31:29;;;;;;;14.02;3.58;;;;;;;;;;5095655;28;20520;-60
2024/01/09 02:33:54;;;;;;;15.27;3.85;;;;;;;;;;5098131;28;20020;-60
2024/01/09 02:36:19;;;;;;;15.13;3.50;;;;;;;;;;5095441;28;20467;-59
2024/01/09 02:38:45;;;;;;;12.90;3.30;;;;;;;;;;5096169;28;20466;-60
2024/01/09 02:41:10;;;;;;;12.75;3.20;;;;;;;;;;5095026;28;20028;-60
2024/01/09 02:43:35;;;;;;;12.43;4.13;;;;;;;;;;5096503;28;20101;-59
2024/01/09 02:46:00;;;;;;;14.57;3.73;;;;;;;;;;5096835;28;20050;-58
2024/01/09 02:48:25;;;;;;;15.52;4.43;;;;;;;;;;5096859;28;20269;-59
2024/01/09 02:50:50;;;;;;;14.93;3.80;;;;;;;;;;5098931;28;20123;-58
2024/01/09 02:53:16;;;;;;;14.93;3.97;;;;;;;;;;5095263;28;20103;-57
2024/01/09 02:55:41;;;;;;;11.15;3.65;;;;;;;;;;5097085;28;20550;-58
2024/01/09 02:58:06;;;;;;;13.02;3.50;;;;;;;;;;5094553;28;20366;-58
2024/01/09 03:00:31;;;;;;;11.98;3.55;;;;;;;;;;5095044;28;20065;-58
2024/01/09 03:02:56;;;;;;;15.17;3.67;;;;;;;;;;5094241;28;20027;-59
2024/01/09 03:05:22;;;;;;;14.05;3.67;;;;;;;;;;5095814;28;20659;-58
2024/01/09 03:07:47;;;;;;;12.90;3.33;;;;;;;;;;5096200;28;20058;-59
2024/01/09 03:10:13;;;;;;;13.18;3.75;;;;;;;;;;5096593;28;20057;-59
2024/01/09 03:12:38;;;;;;;12.88;3.55;;;;;;;;;;5097053;28;20084;-58
2024/01/09 03:15:03;;;;;;;13.63;3.47;;;;;;;;;;5098673;28;20030;-58
2024/01/09 03:17:28;;;;;;;13.20;3.60;;;;;;;;;;5094899;28;20392;-58
2024/01/09 03:19:54;;;;;;;12.93;3.30;;;;;;;;;;5095158;28;20031;-58
2024/01/09 03:22:19;;;;;;;13.43;3.50;;;;;;;;;;5096753;28;20015;-58
2024/01/09 03:24:44;;;;;;;12.88;3.45;;;;;;;;;;5097441;28;20031;-60
2024/01/09 03:27:09;;;;;;;14.25;4.03;;;;;;;;;;5094611;28;20011;-59
2024/01/09 03:29:34;;;;;;;14.25;3.42;;;;;;;;;;5096506;28;20016;-58
2024/01/09 03:32:00;;;;;;;12.55;3.53;;;;;;;;;;5095605;28;20366;-58
2024/01/09 03:34:25;;;;;;;14.77;3.70;;;;;;;;;;5095541;28;20011;-59
2024/01/09 03:36:50;;;;;;;15.20;3.97;;;;;;;;;;5093031;28;20031;-59
2024/01/09 03:39:15;;;;;;;13.73;3.72;;;;;;;;;;5097629;28;20024;-57
2024/01/09 03:41:42;;;;;;;13.45;3.75;;;;;;;;;;5095653;28;20486;-58
2024/01/09 03:44:07;;;;;;;11.38;3.53;;;;;;;;;;5094185;28;20063;-58
2024/01/09 03:46:32;;;;;;;13.05;3.38;;;;;;;;;;5095333;28;20035;-58
2024/01/09 03:48:57;;;;;;;15.57;4.80;;;;;;;;;;5094382;28;20408;-57
2024/01/09 03:51:23;;;;;;;12.77;3.33;;;;;;;;;;5095373;28;20277;-57
2024/01/09 03:53:48;;;;;;;14.57;3.60;;;;;;;;;;5096546;28;20016;-57
2024/01/09 03:56:13;;;;;;;13.88;3.30;;;;;;;;;;5094826;28;20297;-57
2024/01/09 03:58:38;;;;;;;13.45;3.75;;;;;;;;;;5094824;28;20024;-58
2024/01/09 04:01:03;;;;;;;14.15;3.75;;;;;;;;;;5093961;28;20038;-57
2024/01/09 04:03:28;;;;;;;10.40;3.00;;;;;;;;;;5093106;28;20032;-58
2024/01/09 04:05:54;;;;;;;13.40;3.65;;;;;;;;;;5095832;28;20032;-59
2024/01/09 04:08:19;;;;;;;15.20;3.90;;;;;;;;;;5092778;28;20412;-60
2024/01/09 04:10:44;;;;;;;12.07;3.40;;;;;;;;;;5092373;28;20498;-60
2024/01/09 04:13:09;;;;;;;12.30;3.40;;;;;;;;;;5092642;28;20538;-59
2024/01/09 04:15:35;;;;;;;11.55;3.20;;;;;;;;;;5095567;28;20023;-60
2024/01/09 04:18:01;;;;;;;14.48;3.90;;;;;;;;;;5093726;28;20452;-59
2024/01/09 04:20:26;;;;;;;13.65;3.90;;;;;;;;;;5095379;28;20069;-59
2024/01/09 04:22:51;;;;;;;13.85;3.55;;;;;;;;;;5096267;28;20024;-60
2024/01/09 04:25:16;;;;;;;13.43;3.30;;;;;;;;;;5096589;28;20036;-59
2024/01/09 04:27:42;;;;;;;15.80;4.10;;;;;;;;;;5094991;28;20327;-58
2024/01/09 04:30:07;;;;;;;14.73;3.85;;;;;;;;;;5096388;28;20032;-59
2024/01/09 04:32:32;;;;;;;15.75;3.88;;;;;;;;;;5097634;28;20052;-60
2024/01/09 04:34:57;;;;;;;13.18;3.65;;;;;;;;;;5094411;28;20062;-60
2024/01/09 04:37:23;;;;;;;13.68;4.05;;;;;;;;;;5094729;28;20027;-59
2024/01/09 04:39:48;;;;;;;11.82;3.80;;;;;;;;;;5095093;28;20023;-58
2024/01/09 04:42:13;;;;;;;13.98;3.47;;;;;;;;;;5095647;28;20019;-59
2024/01/09 04:44:38;;;;;;;12.18;3.50;;;;;;;;;;5095155;28;20074;-58
2024/01/09 04:47:03;;;;;;;13.83;3.63;;;;;;;;;;5092492;28;20019;-59
2024/01/09 04:49:29;;;;;;;14.93;3.55;;;;;;;;;;5096806;28;20262;-59
2024/01/09 04:51:54;;;;;;;15.05;3.80;;;;;;;;;;5096332;28;20190;-59
2024/01/09 04:54:19;;;;;;;12.55;3.45;;;;;;;;;;5096832;28;20016;-59
2024/01/09 04:56:44;;;;;;;13.88;3.67;;;;;;;;;;5095854;28;20724;-60
2024/01/09 04:59:09;;;;;;;14.48;3.70;;;;;;;;;;5091738;28;20159;-59
2024/01/09 05:01:35;;;;;;;11.95;3.50;;;;;;;;;;5094767;28;20433;-60
2024/01/09 05:04:00;;;;;;;12.25;3.38;;;;;;;;;;5096083;28;20427;-60
2024/01/09 05:06:25;;;;;;;15.13;3.40;;;;;;;;;;5099322;28;20060;-58
2024/01/09 05:08:50;;;;;;;15.88;4.05;;;;;;;;;;5097195;28;20027;-59
2024/01/09 05:11:15;;;;;;;14.25;3.63;;;;;;;;;;5100700;28;20027;-60
2024/01/09 05:13:40;;;;;;;13.52;3.67;;;;;;;;;;5099641;28;20053;-60
2024/01/09 05:16:06;;;;;;;15.27;4.18;;;;;;;;;;5099834;28;20024;-59
2024/01/09 05:18:32;;;;;;;17.25;4.00;;;;;;;;;;5098419;28;20102;-59
2024/01/09 05:20:57;;;;;;;15.43;3.67;;;;;;;;;;5099028;28;20019;-58
2024/01/09 05:23:22;;;;;;;16.83;4.35;;;;;;;;;;5096618;28;20028;-60
2024/01/09 05:25:47;;;;;;;15.07;4.05;;;;;;;;;;5098586;28;20049;-61
2024/01/09 05:28:13;;;;;;;17.25;4.60;;;;;;;;;;5099088;28;20030;-61
2024/01/09 05:30:38;;;;;;;17.58;3.90;;;;;;;;;;5098399;28;20071;-60
2024/01/09 05:33:03;;;;;;;11.77;3.55;;;;;;;;;;5096000;28;20019;-60
2024/01/09 05:35:29;;;;;;;12.77;3.88;;;;;;;;;;5100156;28;20469;-60
2024/01/09 05:37:54;;;;;;;15.52;3.88;;;;;;;;;;5099441;28;20019;-60
2024/01/09 05:40:19;;;;;;;13.07;3.78;;;;;;;;;;5099229;28;20539;-59
2024/01/09 05:42:44;;;;;;;13.52;3.92;;;;;;;;;;5096952;28;20423;-59
2024/01/09 05:45:10;;;;;;;13.77;4.07;;;;;;;;;;5099153;28;20031;-59
2024/01/09 05:47:36;;;;;;;10.63;3.47;;;;;;;;;;5096010;28;20020;-60
2024/01/09 05:50:01;;;;;;;15.63;4.10;;;;;;;;;;5101124;28;20078;-59
2024/01/09 05:52:27;;;;;;;16.77;3.90;;;;;;;;;;5096916;28;20490;-59
2024/01/09 05:54:52;;;;;;;15.00;3.75;;;;;;;;;;5097674;28;21363;-59
2024/01/09 05:57:17;;;;;;;15.52;3.65;;;;;;;;;;5095283;28;20032;-61
2024/01/09 05:59:42;;;;;;;18.57;4.33;;;;;;;;;;5097241;28;20077;-59
2024/01/09 06:02:07;;;;;;;20.30;5.23;;;;;;;;;;5095175;28;20265;-60
2024/01/09 06:04:32;;;;;;;14.15;3.92;;;;;;;;;;5097179;28;20269;-59
2024/01/09 06:06:57;;;;;;;13.77;3.72;;;;;;;;;;5097281;28;20031;-59
2024/01/09 06:09:23;;;;;;;15.55;4.75;;;;;;;;;;5094598;28;20103;-60
2024/01/09 06:11:48;;;;;;;14.57;4.28;;;;;;;;;;5096308;28;20020;-60
2024/01/09 06:14:13;;;;;;;13.38;4.03;;;;;;;;;;5097116;28;20022;-60
2024/01/09 06:16:39;;;;;;;16.30;4.03;;;;;;;;;;5095488;28;20024;-60
2024/01/09 06:19:04;;;;;;;16.65;4.25;;;;;;;;;;5097584;28;20019;-59
2024/01/09 06:21:29;;;;;;;13.77;3.70;;;;;;;;;;5099404;28;20099;-60
2024/01/09 06:23:54;;;;;;;16.73;4.65;;;;;;;;;;5097519;28;20343;-59
2024/01/09 06:26:19;;;;;;;13.02;3.88;;;;;;;;;;5099712;28;20016;-59
2024/01/09 06:28:44;;;;;;;17.33;4.47;;;;;;;;;;5094582;28;20020;-60
2024/01/09 06:31:09;;;;;;;13.50;3.83;;;;;;;;;;5096964;28;20273;-60
2024/01/09 06:33:35;;;;;;;14.23;4.83;;;;;;;;;;5096293;28;20625;-60
2024/01/09 06:36:00;;;;;;;14.60;3.72;;;;;;;;;;5097516;28;20270;-60
2024/01/09 06:38:25;;;;;;;13.57;3.92;;;;;;;;;;5095622;28;20130;-60
2024/01/09 06:40:51;;;;;;;16.33;4.43;;;;;;;;;;5096709;28;20016;-60
2024/01/09 06:43:16;;;;;;;16.67;4.65;;;;;;;;;;5095262;28;20043;-60
2024/01/09 06:45:41;;;;;;;19.03;4.67;;;;;;;;;;5096827;28;20449;-60
2024/01/09 06:48:07;;;;;;;14.80;3.83;;;;;;;;;;5096346;28;20265;-59
2024/01/09 06:50:32;;;;;;;16.45;4.00;;;;;;;;;;5098692;28;20019;-59
2024/01/09 06:52:57;;;;;;;16.02;4.40;;;;;;;;;;5095129;28;20019;-60
2024/01/09 06:55:22;;;;;;;13.95;4.40;;;;;;;;;;5096286;28;20459;-59
2024/01/09 06:57:47;;;;;;;17.10;4.40;;;;;;;;;;5095546;28;20466;-59
2024/01/09 07:00:13;;;;;;;17.40;4.97;;;;;;;;;;5096638;28;20020;-61
2024/01/09 07:02:38;;;;;;;16.73;4.03;;;;;;;;;;5097658;28;20024;-60
2024/01/09 07:05:04;;;;;;;16.80;4.07;;;;;;;;;;5096345;28;20434;-60
2024/01/09 07:07:29;;;;;;;17.55;5.00;;;;;;;;;;5095801;28;20035;-59
2024/01/09 07:09:56;;;;;;;15.73;4.03;;;;;;;;;;5096581;28;20016;-59
2024/01/09 07:12:21;;;;;;;15.15;4.28;;;;;;;;;;5096575;28;20043;-61
2024/01/09 07:14:46;;;;;;;16.85;4.50;;;;;;;;;;5094785;28;20023;-61
2024/01/09 07:17:11;;;;;;;16.07;4.97;;;;;;;;;;5094403;28;20013;-60
2024/01/09 07:19:36;;;;;;;17.38;4.57;;;;;;;;;;5093964;28;21148;-60
2024/01/09 07:22:02;;;;;;;18.77;5.25;;;;;;;;;;5095764;28;20057;-60
2024/01/09 07:24:27;;;;;;;18.08;3.97;;;;;;;;;;5095861;28;20079;-59
2024/01/09 07:26:52;;;;;;;18.90;4.90;;;;;;;;;;5096013;28;20024;-60
2024/01/09 07:29:19;;;;;;;16.08;4.30;;;;;;;;;;5092129;28;20127;-58
2024/01/09 07:31:44;;;;;;;15.90;4.70;;;;;;;;;;5101209;28;20065;-60
2024/01/09 07:34:09;;;;;;;18.38;5.05;;;;;;;;;;5092182;28;20019;-59
2024/01/09 07:36:34;;;;;;;17.38;5.10;;;;;;;;;;5101595;28;20386;-59
2024/01/09 07:39:00;;;;;;;18.02;4.65;;;;;;;;;;5096079;28;20085;-59
2024/01/09 07:41:25;;;;;;;16.35;4.38;;;;;;;;;;5085762;28;20024;-59
2024/01/09 07:43:50;;;;;;;19.52;4.68;;;;;;;;;;5093195;28;20112;-59
2024/01/09 07:46:17;;;;;;;19.20;6.00;;;;;;;;;;5095337;28;20131;-60
2024/01/09 07:48:42;;;;;;;19.35;5.40;;;;;;;;;;5094891;28;20106;-59
2024/01/09 07:51:07;;;;;;;20.73;5.00;;;;;;;;;;5095697;28;20027;-58
2024/01/09 07:53:33;;;;;;;17.17;4.72;;;;;;;;;;5093757;28;20027;-60
2024/01/09 07:55:58;;;;;;;18.48;5.10;;;;;;;;;;5097966;28;20062;-59
2024/01/09 07:58:24;;;;;;;18.77;5.00;;;;;;;;;;5095735;28;20466;-60
2024/01/09 08:00:49;;;;;;;18.63;5.53;;;;;;;;;;5094798;28;20257;-60
2024/01/09 08:03:14;;;;;;;18.50;5.80;;;;;;;;;;5097614;28;20027;-61
2024/01/09 08:05:39;;;;;;;16.08;4.50;;;;;;;;;;5096329;28;20024;-60
2024/01/09 08:08:05;;;;;;;19.70;5.25;;;;;;;;;;5096084;28;20065;-60
2024/01/09 08:10:30;;;;;;;16.30;4.57;;;;;;;;;;5095685;28;20558;-60
2024/01/09 08:12:55;;;;;;;18.35;5.78;;;;;;;;;;5095348;28;20024;-60
2024/01/09 08:15:21;;;;;;;19.27;5.68;;;;;;;;;;5095973;28;20127;-61
2024/01/09 08:17:46;;;;;;;17.65;5.10;;;;;;;;;;5094530;28;20030;-61
2024/01/09 08:20:11;;;;;;;15.43;4.80;;;;;;;;;;5091511;28;20027;-61
2024/01/09 08:22:36;;;;;;;19.55;5.10;;;;;;;;;;5100219;28;20378;-61
2024/01/09 08:25:02;;;;;;;20.27;5.88;;;;;;;;;;5085925;28;20093;-61
2024/01/09 08:27:27;;;;;;;19.23;5.63;;;;;;;;;;5092670;28;20012;-61
2024/01/09 08:29:53;;;;;;;18.45;5.43;;;;;;;;;;5099617;28;20356;-60
2024/01/09 08:32:18;;;;;;;18.05;4.90;;;;;;;;;;5103793;28;20012;-61
2024/01/09 08:34:43;;;;;;;17.73;4.47;;;;;;;;;;5099600;28;20016;-61
2024/01/09 08:37:09;;;;;;;19.63;6.03;;;;;;;;;;5094329;28;20050;-61
2024/01/09 08:39:34;;;;;;;19.00;5.50;;;;;;;;;;5098348;28;20004;-61
2024/01/09 08:41:59;;;;;;;16.98;4.90;;;;;;;;;;5102081;28;20011;-61
2024/01/09 08:44:26;;;;;;;18.67;5.40;;;;;;;;;;5104270;28;20054;-60
2024/01/09 08:46:52;;;;;;;18.80;5.57;;;;;;;;;;5096510;28;20376;-61
2024/01/09 08:49:17;;;;;;;16.92;4.72;;;;;;;;;;5102637;28;20082;-61
2024/01/09 08:51:42;;;;;;;16.88;4.90;;;;;;;;;;5099121;28;20138;-61
2024/01/09 08:54:07;;;;;;;17.88;4.90;;;;;;;;;;5100307;28;20064;-59
2024/01/09 08:56:33;;;;;;;17.85;4.70;;;;;;;;;;5100362;28;20566;-60
2024/01/09 08:58:58;;;;;;;18.83;5.03;;;;;;;;;;5096889;28;20344;-61
2024/01/09 09:01:24;;;;;;;19.45;5.50;;;;;;;;;;5111888;28;20100;-61
2024/01/09 09:03:49;;;;;;;17.40;5.43;;;;;;;;;;5099136;28;20023;-60
2024/01/09 09:06:16;;;;;;;21.02;6.65;;;;;;;;;;5096839;28;20028;-61
2024/01/09 09:08:41;;;;;;;18.35;5.15;;;;;;;;;;5097145;28;20030;-62
2024/01/09 09:11:06;;;;;;;19.38;5.25;;;;;;;;;;5097651;28;20011;-60
2024/01/09 09:13:32;;;;;;;17.63;4.95;;;;;;;;;;5096033;28;20015;-60
2024/01/09 09:15:58;;;;;;;18.27;4.88;;;;;;;;;;5094878;28;20065;-61
2024/01/09 09:18:23;;;;;;;17.88;5.43;;;;;;;;;;5102280;28;20047;-61
2024/01/09 09:20:48;;;;;;;18.13;5.28;;;;;;;;;;5107410;28;20033;-61
2024/01/09 09:23:14;;;;;;;17.30;4.78;;;;;;;;;;5095004;28;20016;-60
2024/01/09 09:25:39;;;;;;;19.17;5.50;;;;;;;;;;5101700;28;20470;-58
2024/01/09 09:28:04;;;;;;;18.02;5.50;;;;;;;;;;5098500;28;20023;-59
2024/01/09 09:30:30;;;;;;;16.90;4.60;;;;;;;;;;5098112;27;20015;-58
2024/01/09 09:32:58;;;;;;;20.92;5.03;;;;;;;;;;5094268;28;20025;-59
2024/01/09 09:35:23;;;;;;;17.98;4.93;;;;;;;;;;5096735;28;20126;-59
2024/01/09 09:37:48;;;;;;;20.20;5.57;;;;;;;;;;5107975;28;20119;-59
2024/01/09 09:40:13;;;;;;;19.08;5.47;;;;;;;;;;5100369;28;20020;-59
2024/01/09 09:42:40;;;;;;;17.48;4.90;;;;;;;;;;5099576;28;20441;-59
2024/01/09 09:45:08;;;;;;;17.88;5.63;;;;;;;;;;5092996;28;20032;-58
2024/01/09 09:47:33;;;;;;;17.80;5.13;;;;;;;;;;5090840;28;20353;-61
2024/01/09 09:49:59;;;;;;;16.40;4.63;;;;;;;;;;5093266;28;20024;-60
2024/01/09 09:52:24;;;;;;;17.27;5.88;;;;;;;;;;5094415;28;20024;-59
2024/01/09 09:54:49;;;;;;;17.48;4.95;;;;;;;;;;5097618;28;20356;-60
2024/01/09 09:57:16;;;;;;;17.33;4.82;;;;;;;;;;5095032;28;20020;-59
2024/01/09 09:59:41;;;;;;;20.02;5.63;;;;;;;;;;5100065;28;20024;-60
2024/01/09 10:02:12;;;;;;;19.80;5.20;;;;;;;;;;5094801;28;20044;-60
2024/01/09 10:04:48;;;;;;;19.30;4.93;;;;;;;;;;5096106;28;20068;-60
2024/01/09 10:07:19;;;;;;;15.38;4.68;;;;;;;;;;5100887;28;20019;-60
2024/01/09 10:09:48;;;;;;;16.83;4.30;;;;;;;;;;5112752;28;20046;-60
2024/01/09 10:12:14;;;;;;;19.15;5.10;;;;;;;;;;5107561;28;20023;-60
2024/01/09 10:14:59;;;;;;;20.85;5.60;;;;;;;;;;5112892;28;20113;-59
2024/01/09 10:17:25;;;;;;;20.52;5.93;;;;;;;;;;5112654;28;20019;-60
2024/01/09 10:19:50;;;;;;;16.15;5.18;;;;;;;;;;5112768;28;20023;-59
2024/01/09 10:22:15;;;;;;;21.10;5.15;;;;;;;;;;5112395;28;20023;-59
2024/01/09 10:24:40;;;;;;;20.50;5.60;;;;;;;;;;5111748;28;20023;-59
2024/01/09 10:27:07;;;;;;;17.35;5.35;;;;;;;;;;5110992;28;20261;-59
2024/01/09 10:29:33;;;;;;;17.90;5.03;;;;;;;;;;5111178;28;20580;-60
2024/01/09 10:31:58;;;;;;;16.40;4.57;;;;;;;;;;5111133;28;20028;-59
2024/01/09 10:34:26;;;;;;;17.13;5.00;;;;;;;;;;5110872;28;20106;-59
2024/01/09 10:36:53;;;;;;;20.67;5.50;;;;;;;;;;5091049;28;20115;-60
2024/01/09 10:39:18;;;;;;;18.83;5.43;;;;;;;;;;5091370;28;20021;-59
2024/01/09 10:41:43;;;;;;;18.65;5.03;;;;;;;;;;5091719;28;20020;-59
2024/01/09 10:44:13;;;;;;;18.00;4.75;;;;;;;;;;5091569;28;20078;-59
2024/01/09 10:46:39;;;;;;;16.60;4.55;;;;;;;;;;5091390;28;20089;-59
2024/01/09 10:49:05;;;;;;;19.08;5.13;;;;;;;;;;5091328;28;20019;-61
2024/01/09 10:51:31;;;;;;;18.73;5.15;;;;;;;;;;5091449;28;20527;-60
2024/01/09 10:53:57;;;;;;;19.63;5.60;;;;;;;;;;5091776;28;20112;-60
2024/01/09 10:56:22;;;;;;;17.52;5.10;;;;;;;;;;5091785;28;20016;-60
2024/01/09 10:58:49;;;;;;;17.42;4.68;;;;;;;;;;5090282;28;20770;-59
2024/01/09 11:01:14;;;;;;;15.90;4.55;;;;;;;;;;5090390;28;20456;-58
2024/01/09 11:03:40;;;;;;;18.23;5.65;;;;;;;;;;5091219;28;20019;-58
2024/01/09 11:06:07;;;;;;;16.30;4.30;;;;;;;;;;5090637;28;20079;-59
2024/01/09 11:08:34;;;;;;;16.35;4.75;;;;;;;;;;5091860;28;20023;-59
2024/01/09 11:10:59;;;;;;;19.60;4.88;;;;;;;;;;5092958;28;20019;-59
2024/01/09 11:13:24;;;;;;;18.15;4.70;;;;;;;;;;5094130;28;20057;-59
2024/01/09 11:15:54;;;;;;;18.08;4.65;;;;;;;;;;5097410;28;20667;-59
2024/01/09 11:18:22;;;;;;;15.55;4.47;;;;;;;;;;5095898;28;20599;-61
2024/01/09 11:20:47;;;;;;;16.75;4.80;;;;;;;;;;5097247;28;20096;-60
2024/01/09 11:23:12;;;;;;;17.17;4.72;;;;;;;;;;5095894;28;20090;-59
2024/01/09 11:25:37;;;;;;;16.23;4.57;;;;;;;;;;5095928;28;20034;-59
2024/01/09 11:28:03;;;;;;;19.48;4.75;;;;;;;;;;5096348;28;20012;-59
2024/01/09 11:30:30;;;;;;;13.95;3.92;;;;;;;;;;5099715;28;20053;-58
2024/01/09 11:32:56;;;;;;;18.15;5.20;;;;;;;;;;5095757;28;20066;-59
2024/01/09 11:35:21;;;;;;;18.75;5.07;;;;;;;;;;5091761;28;20148;-60
2024/01/09 11:37:47;;;;;;;15.35;4.57;;;;;;;;;;5101995;28;20026;-58
2024/01/09 11:40:13;;;;;;;17.10;4.65;;;;;;;;;;5096064;28;20016;-59
2024/01/09 11:42:39;;;;;;;15.82;4.55;;;;;;;;;;5103587;28;20038;-59
2024/01/09 11:45:07;;;;;;;15.00;4.25;;;;;;;;;;5091810;28;20047;-59
2024/01/09 11:47:34;;;;;;;15.43;4.00;;;;;;;;;;5090284;28;20012;-58
2024/01/09 11:50:00;;;;;;;16.30;4.32;;;;;;;;;;5094478;28;20019;-59
2024/01/09 11:52:26;;;;;;;17.40;4.35;;;;;;;;;;5099195;28;20020;-58
2024/01/09 11:54:52;;;;;;;16.98;4.30;;;;;;;;;;5073384;28;20491;-58
2024/01/09 11:57:19;;;;;;;14.35;4.05;;;;;;;;;;5096038;28;20042;-58
2024/01/09 11:59:44;;;;;;;17.50;4.65;;;;;;;;;;5098930;28;20088;-59
2024/01/09 12:02:09;;;;;;;13.60;4.00;;;;;;;;;;5095555;28;20031;-58
2024/01/09 12:04:34;;;;;;;17.40;4.63;;;;;;;;;;5096902;28;20024;-58
2024/01/09 12:07:00;;;;;;;17.40;4.93;;;;;;;;;;5094517;28;20081;-59
2024/01/09 12:09:28;;;;;;;15.57;4.45;;;;;;;;;;5095301;28;20070;-59
2024/01/09 12:11:53;;;;;;;18.30;4.75;;;;;;;;;;5094390;28;20024;-59
2024/01/09 12:14:18;;;;;;;15.23;4.33;;;;;;;;;;5095932;28;20043;-58
2024/01/09 12:16:44;;;;;;;14.40;4.00;;;;;;;;;;5094754;28;20286;-59
2024/01/09 12:19:14;;;;;;;14.88;3.83;;;;;;;;;;5092065;28;20027;-56
2024/01/09 12:21:39;;;;;;;15.02;4.10;;;;;;;;;;5097695;28;20016;-58
2024/01/09 12:24:05;;;;;;;14.02;3.67;;;;;;;;;;5075202;28;20152;-58
2024/01/09 12:26:30;;;;;;;14.00;3.78;;;;;;;;;;5071995;28;20092;-57
2024/01/09 12:28:56;;;;;;;18.02;4.00;;;;;;;;;;5072510;28;20016;-58
2024/01/09 12:31:25;;;;;;;12.98;3.92;;;;;;;;;;5098193;28;20039;-58
2024/01/09 12:33:50;;;;;;;13.95;3.40;;;;;;;;;;5093046;28;20023;-58
2024/01/09 12:36:16;;;;;;;14.52;4.28;;;;;;;;;;5056664;28;20020;-59
2024/01/09 12:38:42;;;;;;;15.52;3.90;;;;;;;;;;5095626;28;20028;-59
2024/01/09 12:41:07;;;;;;;14.15;4.18;;;;;;;;;;5079222;28;20038;-58
2024/01/09 12:43:33;;;;;;;17.38;4.60;;;;;;;;;;5073644;28;20031;-58
2024/01/09 12:46:02;;;;;;;15.32;4.43;;;;;;;;;;5096020;28;20102;-59
2024/01/09 12:48:27;;;;;;;15.30;3.60;;;;;;;;;;5094201;28;20047;-58
2024/01/09 12:50:56;;;;;;;14.38;4.18;;;;;;;;;;5097078;28;20050;-59
2024/01/09 12:53:22;;;;;;;14.13;3.65;;;;;;;;;;5093441;28;20016;-59
2024/01/09 12:56:00;;;;;;;15.70;4.55;;;;;;;;;;5101234;28;20027;-59
2024/01/09 12:58:25;;;;;;;13.05;3.50;;;;;;;;;;5095990;28;20019;-59
2024/01/09 13:00:50;;;;;;;12.35;3.15;;;;;;;;;;5097640;27;20103;-59
2024/01/09 13:03:15;;;;;;;15.10;3.70;;;;;;;;;;5088683;28;20015;-59
2024/01/09 13:05:40;;;;;;;18.48;4.88;;;;;;;;;;5080754;28;20468;-59
2024/01/09 13:08:06;;;;;;;15.27;3.57;;;;;;;;;;5074812;28;20472;-59
2024/01/09 13:10:31;;;;;;;14.40;3.85;;;;;;;;;;5081560;28;20273;-59
2024/01/09 13:12:56;;;;;;;15.37;3.80;;;;;;;;;;5074827;28;20019;-59
2024/01/09 13:15:21;;;;;;;12.57;3.53;;;;;;;;;;5079603;28;20272;-59
2024/01/09 13:17:47;;;;;;;13.75;3.95;;;;;;;;;;5080947;28;20444;-58
2024/01/09 13:20:12;;;;;;;16.88;4.13;;;;;;;;;;5084937;28;20051;-58
2024/01/09 13:22:37;;;;;;;13.57;3.75;;;;;;;;;;5090986;28;20454;-58
2024/01/09 13:25:02;;;;;;;11.10;3.25;;;;;;;;;;5090255;28;20114;-59
2024/01/09 13:27:27;;;;;;;13.05;3.72;;;;;;;;;;5091276;28;20048;-59
2024/01/09 13:29:53;;;;;;;12.73;3.63;;;;;;;;;;5092121;28;20021;-59
2024/01/09 13:32:18;;;;;;;16.43;4.37;;;;;;;;;;5092130;28;20714;-60
2024/01/09 13:34:43;;;;;;;14.55;3.85;;;;;;;;;;5092389;28;20268;-59
2024/01/09 13:37:08;;;;;;;14.50;3.40;;;;;;;;;;5092437;28;20031;-58
2024/01/09 13:39:33;;;;;;;13.33;3.90;;;;;;;;;;5092287;28;20262;-59
2024/01/09 13:41:59;;;;;;;11.00;3.37;;;;;;;;;;5090737;28;20290;-59
2024/01/09 13:44:24;;;;;;;13.50;3.70;;;;;;;;;;5091951;28;20393;-59
2024/01/09 13:46:50;;;;;;;15.88;4.45;;;;;;;;;;5092299;28;20070;-60
2024/01/09 13:49:15;;;;;;;16.05;3.95;;;;;;;;;;5092184;28;20031;-58
2024/01/09 13:51:41;;;;;;;15.80;4.17;;;;;;;;;;5092144;28;20024;-59
2024/01/09 13:54:06;;;;;;;14.07;3.90;;;;;;;;;;5091777;28;20351;-59
2024/01/09 13:56:31;;;;;;;14.82;3.83;;;;;;;;;;5092734;28;20465;-59
2024/01/09 13:58:57;;;;;;;16.27;4.50;;;;;;;;;;5092327;28;20052;-59
2024/01/09 14:01:22;;;;;;;14.15;3.78;;;;;;;;;;5092086;28;20744;-59
2024/01/09 14:03:47;;;;;;;16.13;4.28;;;;;;;;;;5092008;28;20566;-60
2024/01/09 14:06:15;;;;;;;16.93;4.30;;;;;;;;;;5091059;28;20066;-59
2024/01/09 14:08:40;;;;;;;13.23;3.70;;;;;;;;;;5092066;28;20435;-59
2024/01/09 14:11:05;;;;;;;15.02;4.00;;;;;;;;;;5091846;28;20507;-59
2024/01/09 14:13:30;;;;;;;16.00;4.43;;;;;;;;;;5091771;28;20024;-59
2024/01/09 14:15:57;;;;;;;16.27;4.10;;;;;;;;;;5089758;28;20878;-58
2024/01/09 14:18:22;;;;;;;15.52;3.67;;;;;;;;;;5088190;28;20020;-58
2024/01/09 14:20:47;;;;;;;16.20;4.17;;;;;;;;;;5094507;28;21230;-59